sensor_id;sensor_type;location;lat;lon;timestamp;P1;durP1;ratioP1;P2;durP2;ratioP2
16593;SDS011;8410;52.532;13.336;2022-10-04T00:01:46;12.47;;;2.80;;
16593;SDS011;8410;52.532;13.336;2022-10-04T00:04:16;9.97;;;2.60;;
16593;SDS011;8410;52.532;13.336;2022-10-04T00:06:52;13.73;;;2.97;;
16593;SDS011;8410;52.532;13.336;2022-10-04T00:09:23;10.73;;;2.90;;
16593;SDS011;8410;52.532;13.336;2022-10-04T00:11:55;7.87;;;2.60;;
16593;SDS011;8410;52.532;13.336;2022-10-04T00:14:24;14.60;;;3.30;;
16593;SDS011;8410;52.532;13.336;2022-10-04T00:16:54;14.90;;;3.10;;
16593;SDS011;8410;52.532;13.336;2022-10-04T00:19:36;8.97;;;2.43;;
16593;SDS011;8410;52.532;13.336;2022-10-04T00:22:14;11.10;;;2.10;;
16593;SDS011;8410;52.532;13.336;2022-10-04T00:30:43;9.33;;;2.43;;
16593;SDS011;8410;52.532;13.336;2022-10-04T00:33:11;13.50;;;2.20;;
16593;SDS011;8410;52.532;13.336;2022-10-04T00:39:25;13.90;;;2.97;;
16593;SDS011;8410;52.532;13.336;2022-10-04T00:42:10;11.67;;;3.07;;
16593;SDS011;8410;52.532;13.336;2022-10-04T00:44:49;14.53;;;2.93;;
16593;SDS011;8410;52.532;13.336;2022-10-04T00:47:23;13.80;;;2.97;;
16593;SDS011;8410;52.532;13.336;2022-10-04T00:50:00;10.03;;;2.40;;
16593;SDS011;8410;52.532;13.336;2022-10-04T00:52:34;10.93;;;2.87;;
16593;SDS011;8410;52.532;13.336;2022-10-04T00:55:08;12.00;;;2.87;;
16593;SDS011;8410;52.532;13.336;2022-10-04T00:57:41;11.20;;;3.20;;
16593;SDS011;8410;52.532;13.336;2022-10-04T01:00:14;10.27;;;2.83;;
16593;SDS011;8410;52.532;13.336;2022-10-04T01:02:45;11.03;;;2.73;;
16593;SDS011;8410;52.532;13.336;2022-10-04T01:05:20;11.63;;;2.63;;
16593;SDS011;8410;52.532;13.336;2022-10-04T01:07:53;10.70;;;2.73;;
16593;SDS011;8410;52.532;13.336;2022-10-04T01:10:25;10.30;;;2.60;;
16593;SDS011;8410;52.532;13.336;2022-10-04T01:12:56;13.13;;;2.87;;
16593;SDS011;8410;52.532;13.336;2022-10-04T01:15:32;12.50;;;2.80;;
16593;SDS011;8410;52.532;13.336;2022-10-04T01:18:11;12.63;;;3.03;;
16593;SDS011;8410;52.532;13.336;2022-10-04T01:20:48;14.63;;;2.77;;
16593;SDS011;8410;52.532;13.336;2022-10-04T01:23:35;10.70;;;2.83;;
16593;SDS011;8410;52.532;13.336;2022-10-04T01:26:06;9.83;;;2.50;;
16593;SDS011;8410;52.532;13.336;2022-10-04T01:29:02;10.03;;;2.67;;
16593;SDS011;8410;52.532;13.336;2022-10-04T01:31:35;10.87;;;2.63;;
16593;SDS011;8410;52.532;13.336;2022-10-04T01:34:04;7.93;;;2.47;;
16593;SDS011;8410;52.532;13.336;2022-10-04T01:36:32;9.83;;;2.80;;
16593;SDS011;8410;52.532;13.336;2022-10-04T01:39:02;10.93;;;2.60;;
16593;SDS011;8410;52.532;13.336;2022-10-04T01:41:34;8.63;;;2.63;;
16593;SDS011;8410;52.532;13.336;2022-10-04T01:44:10;9.97;;;2.90;;
16593;SDS011;8410;52.532;13.336;2022-10-04T01:46:45;9.63;;;2.93;;
16593;SDS011;8410;52.532;13.336;2022-10-04T01:49:15;12.53;;;2.97;;
16593;SDS011;8410;52.532;13.336;2022-10-04T01:51:48;11.93;;;3.00;;
16593;SDS011;8410;52.532;13.336;2022-10-04T01:54:30;9.33;;;2.47;;
16593;SDS011;8410;52.532;13.336;2022-10-04T01:57:02;15.20;;;3.30;;
16593;SDS011;8410;52.532;13.336;2022-10-04T01:59:36;11.23;;;2.50;;
16593;SDS011;8410;52.532;13.336;2022-10-04T02:02:08;12.87;;;2.93;;
16593;SDS011;8410;52.532;13.336;2022-10-04T02:04:42;12.37;;;3.30;;
16593;SDS011;8410;52.532;13.336;2022-10-04T02:07:17;8.80;;;2.93;;
16593;SDS011;8410;52.532;13.336;2022-10-04T02:09:49;9.37;;;2.50;;
16593;SDS011;8410;52.532;13.336;2022-10-04T02:12:21;8.90;;;2.57;;
16593;SDS011;8410;52.532;13.336;2022-10-04T02:14:50;13.10;;;3.17;;
16593;SDS011;8410;52.532;13.336;2022-10-04T02:17:21;16.40;;;3.80;;
16593;SDS011;8410;52.532;13.336;2022-10-04T02:19:53;10.80;;;2.60;;
16593;SDS011;8410;52.532;13.336;2022-10-04T02:22:22;11.00;;;2.80;;
16593;SDS011;8410;52.532;13.336;2022-10-04T02:24:52;15.47;;;3.03;;
16593;SDS011;8410;52.532;13.336;2022-10-04T02:27:24;10.43;;;2.77;;
16593;SDS011;8410;52.532;13.336;2022-10-04T02:29:58;10.60;;;2.90;;
16593;SDS011;8410;52.532;13.336;2022-10-04T02:32:28;11.13;;;2.60;;
16593;SDS011;8410;52.532;13.336;2022-10-04T02:35:14;7.77;;;2.30;;
16593;SDS011;8410;52.532;13.336;2022-10-04T02:37:43;7.50;;;2.20;;
16593;SDS011;8410;52.532;13.336;2022-10-04T02:40:14;8.30;;;2.40;;
16593;SDS011;8410;52.532;13.336;2022-10-04T02:42:46;14.37;;;3.13;;
16593;SDS011;8410;52.532;13.336;2022-10-04T02:45:21;10.03;;;2.30;;
16593;SDS011;8410;52.532;13.336;2022-10-04T02:47:57;9.10;;;2.73;;
16593;SDS011;8410;52.532;13.336;2022-10-04T02:50:30;9.80;;;2.53;;
16593;SDS011;8410;52.532;13.336;2022-10-04T02:53:03;11.80;;;2.70;;
16593;SDS011;8410;52.532;13.336;2022-10-04T02:55:40;11.33;;;2.90;;
16593;SDS011;8410;52.532;13.336;2022-10-04T02:58:09;15.97;;;3.37;;
16593;SDS011;8410;52.532;13.336;2022-10-04T03:00:44;11.33;;;3.03;;
16593;SDS011;8410;52.532;13.336;2022-10-04T03:03:16;13.03;;;3.80;;
16593;SDS011;8410;52.532;13.336;2022-10-04T03:05:52;12.97;;;3.33;;
16593;SDS011;8410;52.532;13.336;2022-10-04T03:08:24;11.37;;;3.00;;
16593;SDS011;8410;52.532;13.336;2022-10-04T03:10:54;16.00;;;3.27;;
16593;SDS011;8410;52.532;13.336;2022-10-04T03:13:22;9.43;;;3.07;;
16593;SDS011;8410;52.532;13.336;2022-10-04T03:15:50;15.17;;;3.40;;
16593;SDS011;8410;52.532;13.336;2022-10-04T03:18:18;12.30;;;3.33;;
16593;SDS011;8410;52.532;13.336;2022-10-04T03:20:46;13.97;;;3.00;;
16593;SDS011;8410;52.532;13.336;2022-10-04T03:23:14;15.47;;;3.03;;
16593;SDS011;8410;52.532;13.336;2022-10-04T03:25:47;10.97;;;3.20;;
16593;SDS011;8410;52.532;13.336;2022-10-04T03:28:20;11.70;;;3.43;;
16593;SDS011;8410;52.532;13.336;2022-10-04T03:30:48;13.20;;;3.47;;
16593;SDS011;8410;52.532;13.336;2022-10-04T03:33:17;12.73;;;3.47;;
16593;SDS011;8410;52.532;13.336;2022-10-04T03:35:49;12.73;;;3.03;;
16593;SDS011;8410;52.532;13.336;2022-10-04T03:38:20;14.03;;;3.43;;
16593;SDS011;8410;52.532;13.336;2022-10-04T03:40:50;14.13;;;3.10;;
16593;SDS011;8410;52.532;13.336;2022-10-04T03:43:23;13.37;;;3.73;;
16593;SDS011;8410;52.532;13.336;2022-10-04T03:45:55;10.90;;;3.20;;
16593;SDS011;8410;52.532;13.336;2022-10-04T03:48:26;8.43;;;3.37;;
16593;SDS011;8410;52.532;13.336;2022-10-04T03:50:57;13.37;;;3.37;;
16593;SDS011;8410;52.532;13.336;2022-10-04T03:53:31;14.83;;;3.43;;
16593;SDS011;8410;52.532;13.336;2022-10-04T03:56:07;11.00;;;3.47;;
16593;SDS011;8410;52.532;13.336;2022-10-04T03:58:38;13.67;;;3.17;;
16593;SDS011;8410;52.532;13.336;2022-10-04T04:01:18;13.17;;;3.67;;
16593;SDS011;8410;52.532;13.336;2022-10-04T04:03:58;10.73;;;3.30;;
16593;SDS011;8410;52.532;13.336;2022-10-04T04:06:30;14.27;;;3.93;;
16593;SDS011;8410;52.532;13.336;2022-10-04T04:09:06;11.53;;;2.90;;
16593;SDS011;8410;52.532;13.336;2022-10-04T04:11:35;12.17;;;3.07;;
16593;SDS011;8410;52.532;13.336;2022-10-04T04:14:05;11.60;;;3.17;;
16593;SDS011;8410;52.532;13.336;2022-10-04T04:16:36;11.80;;;3.30;;
16593;SDS011;8410;52.532;13.336;2022-10-04T04:19:06;14.40;;;3.27;;
16593;SDS011;8410;52.532;13.336;2022-10-04T04:21:38;10.60;;;3.10;;
16593;SDS011;8410;52.532;13.336;2022-10-04T04:24:11;12.70;;;3.90;;
16593;SDS011;8410;52.532;13.336;2022-10-04T04:26:49;11.17;;;3.20;;
16593;SDS011;8410;52.532;13.336;2022-10-04T04:29:22;9.53;;;2.43;;
16593;SDS011;8410;52.532;13.336;2022-10-04T04:31:53;12.03;;;3.17;;
16593;SDS011;8410;52.532;13.336;2022-10-04T04:34:25;11.60;;;3.13;;
16593;SDS011;8410;52.532;13.336;2022-10-04T04:36:56;12.00;;;2.87;;
16593;SDS011;8410;52.532;13.336;2022-10-04T04:39:27;10.10;;;2.67;;
16593;SDS011;8410;52.532;13.336;2022-10-04T04:42:05;15.50;;;2.90;;
16593;SDS011;8410;52.532;13.336;2022-10-04T04:44:45;11.57;;;3.07;;
16593;SDS011;8410;52.532;13.336;2022-10-04T04:47:20;9.60;;;2.83;;
16593;SDS011;8410;52.532;13.336;2022-10-04T04:49:53;17.00;;;3.97;;
16593;SDS011;8410;52.532;13.336;2022-10-04T04:52:24;11.47;;;3.00;;
16593;SDS011;8410;52.532;13.336;2022-10-04T04:54:54;11.70;;;3.40;;
16593;SDS011;8410;52.532;13.336;2022-10-04T04:57:22;13.77;;;3.23;;
16593;SDS011;8410;52.532;13.336;2022-10-04T04:59:53;8.27;;;2.93;;
16593;SDS011;8410;52.532;13.336;2022-10-04T05:02:26;11.30;;;5.40;;
16593;SDS011;8410;52.532;13.336;2022-10-04T05:05:15;14.63;;;3.87;;
16593;SDS011;8410;52.532;13.336;2022-10-04T05:07:44;14.27;;;3.87;;
16593;SDS011;8410;52.532;13.336;2022-10-04T05:10:19;14.03;;;3.40;;
16593;SDS011;8410;52.532;13.336;2022-10-04T05:12:48;12.10;;;3.40;;
16593;SDS011;8410;52.532;13.336;2022-10-04T05:15:17;12.50;;;3.57;;
16593;SDS011;8410;52.532;13.336;2022-10-04T05:17:44;10.77;;;3.10;;
16593;SDS011;8410;52.532;13.336;2022-10-04T05:20:12;13.47;;;3.33;;
16593;SDS011;8410;52.532;13.336;2022-10-04T05:22:42;14.93;;;4.30;;
16593;SDS011;8410;52.532;13.336;2022-10-04T05:25:13;14.37;;;3.60;;
16593;SDS011;8410;52.532;13.336;2022-10-04T05:27:48;10.10;;;3.57;;
16593;SDS011;8410;52.532;13.336;2022-10-04T05:30:21;11.13;;;3.00;;
16593;SDS011;8410;52.532;13.336;2022-10-04T05:32:59;10.60;;;2.83;;
16593;SDS011;8410;52.532;13.336;2022-10-04T05:35:29;10.53;;;3.00;;
16593;SDS011;8410;52.532;13.336;2022-10-04T05:38:09;10.97;;;2.97;;
16593;SDS011;8410;52.532;13.336;2022-10-04T05:40:45;9.93;;;2.90;;
16593;SDS011;8410;52.532;13.336;2022-10-04T05:43:21;10.87;;;2.90;;
16593;SDS011;8410;52.532;13.336;2022-10-04T05:46:14;9.13;;;3.17;;
16593;SDS011;8410;52.532;13.336;2022-10-04T05:48:46;15.87;;;4.07;;
16593;SDS011;8410;52.532;13.336;2022-10-04T05:51:19;13.63;;;3.90;;
16593;SDS011;8410;52.532;13.336;2022-10-04T05:53:48;11.13;;;3.57;;
16593;SDS011;8410;52.532;13.336;2022-10-04T05:56:20;13.07;;;3.27;;
16593;SDS011;8410;52.532;13.336;2022-10-04T05:59:04;12.43;;;3.90;;
16593;SDS011;8410;52.532;13.336;2022-10-04T06:01:45;10.77;;;3.47;;
16593;SDS011;8410;52.532;13.336;2022-10-04T06:04:26;8.97;;;2.87;;
16593;SDS011;8410;52.532;13.336;2022-10-04T06:07:08;9.47;;;3.07;;
16593;SDS011;8410;52.532;13.336;2022-10-04T06:09:55;8.80;;;2.87;;
16593;SDS011;8410;52.532;13.336;2022-10-04T06:12:37;11.20;;;2.97;;
16593;SDS011;8410;52.532;13.336;2022-10-04T06:15:19;10.40;;;3.00;;
16593;SDS011;8410;52.532;13.336;2022-10-04T06:18:06;8.80;;;2.80;;
16593;SDS011;8410;52.532;13.336;2022-10-04T06:20:49;10.07;;;2.90;;
16593;SDS011;8410;52.532;13.336;2022-10-04T06:23:26;9.17;;;2.93;;
16593;SDS011;8410;52.532;13.336;2022-10-04T06:25:57;9.63;;;2.90;;
16593;SDS011;8410;52.532;13.336;2022-10-04T06:28:30;6.93;;;2.27;;
16593;SDS011;8410;52.532;13.336;2022-10-04T06:31:11;13.17;;;3.30;;
16593;SDS011;8410;52.532;13.336;2022-10-04T06:34:01;10.27;;;2.90;;
16593;SDS011;8410;52.532;13.336;2022-10-04T06:39:42;9.77;;;3.33;;
16593;SDS011;8410;52.532;13.336;2022-10-04T06:42:37;8.50;;;3.47;;
16593;SDS011;8410;52.532;13.336;2022-10-04T06:45:19;10.90;;;3.33;;
16593;SDS011;8410;52.532;13.336;2022-10-04T06:48:02;10.73;;;3.03;;
16593;SDS011;8410;52.532;13.336;2022-10-04T06:50:43;10.60;;;3.40;;
16593;SDS011;8410;52.532;13.336;2022-10-04T06:53:18;11.13;;;4.40;;
16593;SDS011;8410;52.532;13.336;2022-10-04T06:56:01;10.53;;;3.60;;
16593;SDS011;8410;52.532;13.336;2022-10-04T06:58:51;8.67;;;3.17;;
16593;SDS011;8410;52.532;13.336;2022-10-04T07:01:35;13.07;;;3.40;;
16593;SDS011;8410;52.532;13.336;2022-10-04T07:04:09;9.10;;;3.17;;
16593;SDS011;8410;52.532;13.336;2022-10-04T07:06:50;11.37;;;3.90;;
16593;SDS011;8410;52.532;13.336;2022-10-04T07:09:42;8.77;;;3.20;;
16593;SDS011;8410;52.532;13.336;2022-10-04T07:12:11;7.80;;;3.27;;
16593;SDS011;8410;52.532;13.336;2022-10-04T07:14:42;7.27;;;3.40;;
16593;SDS011;8410;52.532;13.336;2022-10-04T07:17:13;8.93;;;3.40;;
16593;SDS011;8410;52.532;13.336;2022-10-04T07:19:45;11.37;;;5.03;;
16593;SDS011;8410;52.532;13.336;2022-10-04T07:22:18;11.97;;;4.07;;
16593;SDS011;8410;52.532;13.336;2022-10-04T07:24:56;9.40;;;3.53;;
16593;SDS011;8410;52.532;13.336;2022-10-04T07:27:32;10.73;;;3.33;;
16593;SDS011;8410;52.532;13.336;2022-10-04T07:30:12;10.67;;;3.83;;
16593;SDS011;8410;52.532;13.336;2022-10-04T07:32:42;11.37;;;3.63;;
16593;SDS011;8410;52.532;13.336;2022-10-04T07:35:12;12.83;;;4.27;;
16593;SDS011;8410;52.532;13.336;2022-10-04T07:37:48;10.50;;;3.67;;
16593;SDS011;8410;52.532;13.336;2022-10-04T07:40:24;11.23;;;3.90;;
16593;SDS011;8410;52.532;13.336;2022-10-04T07:42:56;9.50;;;4.10;;
16593;SDS011;8410;52.532;13.336;2022-10-04T07:45:29;8.37;;;4.20;;
16593;SDS011;8410;52.532;13.336;2022-10-04T07:48:03;10.53;;;4.57;;
16593;SDS011;8410;52.532;13.336;2022-10-04T07:50:37;10.27;;;4.97;;
16593;SDS011;8410;52.532;13.336;2022-10-04T07:53:13;10.57;;;5.33;;
16593;SDS011;8410;52.532;13.336;2022-10-04T07:55:48;11.63;;;5.10;;
16593;SDS011;8410;52.532;13.336;2022-10-04T07:58:25;8.40;;;4.17;;
16593;SDS011;8410;52.532;13.336;2022-10-04T08:01:02;8.87;;;5.00;;
16593;SDS011;8410;52.532;13.336;2022-10-04T08:03:44;12.50;;;5.40;;
16593;SDS011;8410;52.532;13.336;2022-10-04T08:06:23;14.17;;;5.27;;
16593;SDS011;8410;52.532;13.336;2022-10-04T08:09:05;10.37;;;5.80;;
16593;SDS011;8410;52.532;13.336;2022-10-04T08:11:45;13.17;;;7.80;;
16593;SDS011;8410;52.532;13.336;2022-10-04T08:14:21;14.07;;;6.87;;
16593;SDS011;8410;52.532;13.336;2022-10-04T08:16:57;10.90;;;5.30;;
16593;SDS011;8410;52.532;13.336;2022-10-04T08:19:42;8.40;;;5.50;;
16593;SDS011;8410;52.532;13.336;2022-10-04T08:22:24;11.73;;;5.20;;
16593;SDS011;8410;52.532;13.336;2022-10-04T08:25:07;14.60;;;7.30;;
16593;SDS011;8410;52.532;13.336;2022-10-04T08:27:46;12.07;;;6.80;;
16593;SDS011;8410;52.532;13.336;2022-10-04T08:30:40;9.57;;;7.50;;
16593;SDS011;8410;52.532;13.336;2022-10-04T08:33:25;15.30;;;7.37;;
16593;SDS011;8410;52.532;13.336;2022-10-04T08:36:05;13.20;;;6.70;;
16593;SDS011;8410;52.532;13.336;2022-10-04T08:38:45;9.10;;;5.60;;
16593;SDS011;8410;52.532;13.336;2022-10-04T08:41:29;8.43;;;5.60;;
16593;SDS011;8410;52.532;13.336;2022-10-04T08:44:40;8.70;;;5.23;;
16593;SDS011;8410;52.532;13.336;2022-10-04T08:50:33;11.83;;;5.53;;
16593;SDS011;8410;52.532;13.336;2022-10-04T08:53:34;6.33;;;4.50;;
16593;SDS011;8410;52.532;13.336;2022-10-04T08:56:23;6.37;;;4.27;;
16593;SDS011;8410;52.532;13.336;2022-10-04T08:59:10;5.20;;;3.90;;
16593;SDS011;8410;52.532;13.336;2022-10-04T09:02:16;5.83;;;3.97;;
16593;SDS011;8410;52.532;13.336;2022-10-04T09:05:07;7.17;;;3.67;;
16593;SDS011;8410;52.532;13.336;2022-10-04T09:08:01;15.20;;;4.80;;
16593;SDS011;8410;52.532;13.336;2022-10-04T09:13:39;5.10;;;3.83;;
16593;SDS011;8410;52.532;13.336;2022-10-04T09:16:15;6.27;;;3.43;;
16593;SDS011;8410;52.532;13.336;2022-10-04T09:18:51;6.40;;;3.60;;
16593;SDS011;8410;52.532;13.336;2022-10-04T09:21:48;7.27;;;3.27;;
16593;SDS011;8410;52.532;13.336;2022-10-04T09:24:37;7.80;;;3.67;;
16593;SDS011;8410;52.532;13.336;2022-10-04T09:27:31;6.63;;;3.70;;
16593;SDS011;8410;52.532;13.336;2022-10-04T09:30:21;6.97;;;3.80;;
16593;SDS011;8410;52.532;13.336;2022-10-04T09:33:01;8.63;;;3.40;;
16593;SDS011;8410;52.532;13.336;2022-10-04T09:35:53;7.23;;;3.30;;
16593;SDS011;8410;52.532;13.336;2022-10-04T09:42:03;6.60;;;2.80;;
16593;SDS011;8410;52.532;13.336;2022-10-04T09:47:51;6.83;;;3.17;;
16593;SDS011;8410;52.532;13.336;2022-10-04T09:50:38;6.23;;;2.77;;
16593;SDS011;8410;52.532;13.336;2022-10-04T09:53:28;5.40;;;2.97;;
16593;SDS011;8410;52.532;13.336;2022-10-04T09:56:13;7.57;;;2.90;;
16593;SDS011;8410;52.532;13.336;2022-10-04T10:01:57;6.20;;;2.63;;
16593;SDS011;8410;52.532;13.336;2022-10-04T10:04:45;4.13;;;2.60;;
16593;SDS011;8410;52.532;13.336;2022-10-04T10:07:24;5.67;;;2.97;;
16593;SDS011;8410;52.532;13.336;2022-10-04T10:10:05;7.17;;;3.03;;
16593;SDS011;8410;52.532;13.336;2022-10-04T10:16:20;6.50;;;3.17;;
16593;SDS011;8410;52.532;13.336;2022-10-04T10:19:01;9.47;;;4.03;;
16593;SDS011;8410;52.532;13.336;2022-10-04T10:21:50;10.20;;;3.40;;
16593;SDS011;8410;52.532;13.336;2022-10-04T10:24:25;9.47;;;3.30;;
16593;SDS011;8410;52.532;13.336;2022-10-04T10:27:24;9.87;;;4.80;;
16593;SDS011;8410;52.532;13.336;2022-10-04T10:30:20;8.17;;;3.80;;
16593;SDS011;8410;52.532;13.336;2022-10-04T10:35:58;9.20;;;3.13;;
16593;SDS011;8410;52.532;13.336;2022-10-04T10:38:46;9.50;;;4.53;;
16593;SDS011;8410;52.532;13.336;2022-10-04T10:41:27;10.30;;;4.00;;
16593;SDS011;8410;52.532;13.336;2022-10-04T10:44:07;9.00;;;4.03;;
16593;SDS011;8410;52.532;13.336;2022-10-04T10:46:51;10.90;;;3.63;;
16593;SDS011;8410;52.532;13.336;2022-10-04T10:49:33;8.83;;;3.40;;
16593;SDS011;8410;52.532;13.336;2022-10-04T10:52:16;9.10;;;3.97;;
16593;SDS011;8410;52.532;13.336;2022-10-04T10:55:18;9.47;;;3.70;;
16593;SDS011;8410;52.532;13.336;2022-10-04T10:58:05;7.93;;;3.43;;
16593;SDS011;8410;52.532;13.336;2022-10-04T11:00:51;9.30;;;3.67;;
16593;SDS011;8410;52.532;13.336;2022-10-04T11:03:49;9.60;;;3.73;;
16593;SDS011;8410;52.532;13.336;2022-10-04T11:09:52;14.00;;;4.07;;
16593;SDS011;8410;52.532;13.336;2022-10-04T11:12:51;7.67;;;3.43;;
16593;SDS011;8410;52.532;13.336;2022-10-04T11:15:43;10.53;;;4.80;;
16593;SDS011;8410;52.532;13.336;2022-10-04T11:21:53;10.03;;;3.70;;
16593;SDS011;8410;52.532;13.336;2022-10-04T11:24:45;10.60;;;3.67;;
16593;SDS011;8410;52.532;13.336;2022-10-04T11:27:37;8.30;;;3.20;;
16593;SDS011;8410;52.532;13.336;2022-10-04T11:30:17;9.10;;;3.07;;
16593;SDS011;8410;52.532;13.336;2022-10-04T11:36:04;8.80;;;2.70;;
16593;SDS011;8410;52.532;13.336;2022-10-04T11:39:00;9.77;;;2.30;;
16593;SDS011;8410;52.532;13.336;2022-10-04T11:41:45;8.53;;;2.90;;
16593;SDS011;8410;52.532;13.336;2022-10-04T11:44:27;8.37;;;2.73;;
16593;SDS011;8410;52.532;13.336;2022-10-04T11:47:09;8.53;;;2.80;;
16593;SDS011;8410;52.532;13.336;2022-10-04T11:49:58;10.23;;;2.77;;
16593;SDS011;8410;52.532;13.336;2022-10-04T11:52:41;6.97;;;2.37;;
16593;SDS011;8410;52.532;13.336;2022-10-04T11:55:32;9.33;;;3.40;;
16593;SDS011;8410;52.532;13.336;2022-10-04T11:58:22;9.37;;;2.87;;
16593;SDS011;8410;52.532;13.336;2022-10-04T12:01:05;11.37;;;3.60;;
16593;SDS011;8410;52.532;13.336;2022-10-04T12:03:57;10.27;;;2.60;;
16593;SDS011;8410;52.532;13.336;2022-10-04T12:06:43;8.37;;;3.37;;
16593;SDS011;8410;52.532;13.336;2022-10-04T12:09:25;10.73;;;3.30;;
16593;SDS011;8410;52.532;13.336;2022-10-04T12:15:17;10.83;;;2.20;;
16593;SDS011;8410;52.532;13.336;2022-10-04T12:18:23;10.90;;;2.47;;
16593;SDS011;8410;52.532;13.336;2022-10-04T12:24:07;7.20;;;2.03;;
16593;SDS011;8410;52.532;13.336;2022-10-04T12:26:48;11.00;;;3.67;;
16593;SDS011;8410;52.532;13.336;2022-10-04T12:29:51;5.77;;;2.30;;
16593;SDS011;8410;52.532;13.336;2022-10-04T12:32:35;7.07;;;1.87;;
16593;SDS011;8410;52.532;13.336;2022-10-04T12:35:22;7.53;;;2.23;;
16593;SDS011;8410;52.532;13.336;2022-10-04T12:38:15;8.00;;;2.47;;
16593;SDS011;8410;52.532;13.336;2022-10-04T12:40:51;5.03;;;2.00;;
16593;SDS011;8410;52.532;13.336;2022-10-04T12:43:28;5.37;;;2.30;;
16593;SDS011;8410;52.532;13.336;2022-10-04T12:46:07;6.70;;;2.30;;
16593;SDS011;8410;52.532;13.336;2022-10-04T12:48:52;7.83;;;2.10;;
16593;SDS011;8410;52.532;13.336;2022-10-04T12:51:34;13.50;;;4.00;;
16593;SDS011;8410;52.532;13.336;2022-10-04T12:54:17;8.53;;;2.60;;
16593;SDS011;8410;52.532;13.336;2022-10-04T12:56:59;8.40;;;2.60;;
16593;SDS011;8410;52.532;13.336;2022-10-04T12:59:44;8.10;;;1.93;;
16593;SDS011;8410;52.532;13.336;2022-10-04T13:02:22;8.13;;;2.30;;
16593;SDS011;8410;52.532;13.336;2022-10-04T13:05:02;6.63;;;2.20;;
16593;SDS011;8410;52.532;13.336;2022-10-04T13:07:45;5.10;;;2.30;;
16593;SDS011;8410;52.532;13.336;2022-10-04T13:10:26;7.37;;;2.80;;
16593;SDS011;8410;52.532;13.336;2022-10-04T13:16:05;8.97;;;2.60;;
16593;SDS011;8410;52.532;13.336;2022-10-04T13:18:59;8.33;;;2.40;;
16593;SDS011;8410;52.532;13.336;2022-10-04T13:21:51;7.67;;;2.20;;
16593;SDS011;8410;52.532;13.336;2022-10-04T13:24:39;5.33;;;1.90;;
16593;SDS011;8410;52.532;13.336;2022-10-04T13:27:25;9.37;;;3.20;;
16593;SDS011;8410;52.532;13.336;2022-10-04T13:30:14;16.84;;;11.54;;
16593;SDS011;8410;52.532;13.336;2022-10-04T13:32:51;8.57;;;2.60;;
16593;SDS011;8410;52.532;13.336;2022-10-04T13:35:24;15.77;;;2.53;;
16593;SDS011;8410;52.532;13.336;2022-10-04T13:38:06;11.73;;;2.30;;
16593;SDS011;8410;52.532;13.336;2022-10-04T13:40:58;6.00;;;2.13;;
16593;SDS011;8410;52.532;13.336;2022-10-04T13:43:37;7.03;;;2.10;;
16593;SDS011;8410;52.532;13.336;2022-10-04T13:46:21;7.27;;;2.23;;
16593;SDS011;8410;52.532;13.336;2022-10-04T13:49:00;6.53;;;1.80;;
16593;SDS011;8410;52.532;13.336;2022-10-04T13:51:47;4.93;;;1.67;;
16593;SDS011;8410;52.532;13.336;2022-10-04T13:54:42;6.67;;;1.83;;
16593;SDS011;8410;52.532;13.336;2022-10-04T13:57:38;6.77;;;2.20;;
16593;SDS011;8410;52.532;13.336;2022-10-04T14:00:17;6.03;;;2.00;;
16593;SDS011;8410;52.532;13.336;2022-10-04T14:03:17;5.87;;;2.10;;
16593;SDS011;8410;52.532;13.336;2022-10-04T14:08:55;8.77;;;1.80;;
16593;SDS011;8410;52.532;13.336;2022-10-04T14:11:41;5.10;;;1.80;;
16593;SDS011;8410;52.532;13.336;2022-10-04T14:14:36;5.93;;;2.03;;
16593;SDS011;8410;52.532;13.336;2022-10-04T14:20:30;7.20;;;1.87;;
16593;SDS011;8410;52.532;13.336;2022-10-04T14:23:43;5.07;;;2.20;;
16593;SDS011;8410;52.532;13.336;2022-10-04T14:27:00;5.47;;;2.00;;
16593;SDS011;8410;52.532;13.336;2022-10-04T14:29:49;9.90;;;2.40;;
16593;SDS011;8410;52.532;13.336;2022-10-04T14:32:44;7.47;;;2.03;;
16593;SDS011;8410;52.532;13.336;2022-10-04T14:35:48;8.00;;;1.90;;
16593;SDS011;8410;52.532;13.336;2022-10-04T14:38:37;7.70;;;1.90;;
16593;SDS011;8410;52.532;13.336;2022-10-04T14:44:40;6.67;;;2.27;;
16593;SDS011;8410;52.532;13.336;2022-10-04T14:47:35;6.60;;;1.83;;
16593;SDS011;8410;52.532;13.336;2022-10-04T14:50:25;7.93;;;2.60;;
16593;SDS011;8410;52.532;13.336;2022-10-04T14:53:03;16.70;;;2.60;;
16593;SDS011;8410;52.532;13.336;2022-10-04T14:58:47;23.07;;;2.77;;
16593;SDS011;8410;52.532;13.336;2022-10-04T15:01:20;10.40;;;2.10;;
16593;SDS011;8410;52.532;13.336;2022-10-04T15:03:52;4.67;;;2.17;;
16593;SDS011;8410;52.532;13.336;2022-10-04T15:06:34;4.87;;;1.80;;
16593;SDS011;8410;52.532;13.336;2022-10-04T15:09:15;5.93;;;2.07;;
16593;SDS011;8410;52.532;13.336;2022-10-04T15:11:52;7.60;;;1.93;;
16593;SDS011;8410;52.532;13.336;2022-10-04T15:14:58;5.80;;;2.27;;
16593;SDS011;8410;52.532;13.336;2022-10-04T15:17:53;6.83;;;1.80;;
16593;SDS011;8410;52.532;13.336;2022-10-04T15:20:26;7.93;;;1.83;;
16593;SDS011;8410;52.532;13.336;2022-10-04T15:23:05;5.77;;;1.70;;
16593;SDS011;8410;52.532;13.336;2022-10-04T15:25:41;6.00;;;2.70;;
16593;SDS011;8410;52.532;13.336;2022-10-04T15:28:15;5.87;;;2.13;;
16593;SDS011;8410;52.532;13.336;2022-10-04T15:30:58;7.23;;;2.40;;
16593;SDS011;8410;52.532;13.336;2022-10-04T15:33:34;4.23;;;2.20;;
16593;SDS011;8410;52.532;13.336;2022-10-04T15:36:13;4.17;;;1.60;;
16593;SDS011;8410;52.532;13.336;2022-10-04T15:38:53;8.53;;;2.00;;
16593;SDS011;8410;52.532;13.336;2022-10-04T15:41:31;7.07;;;2.50;;
16593;SDS011;8410;52.532;13.336;2022-10-04T15:47:07;8.13;;;2.67;;
16593;SDS011;8410;52.532;13.336;2022-10-04T15:49:46;6.63;;;1.97;;
16593;SDS011;8410;52.532;13.336;2022-10-04T15:55:20;5.10;;;2.10;;
16593;SDS011;8410;52.532;13.336;2022-10-04T15:58:03;5.10;;;2.00;;
16593;SDS011;8410;52.532;13.336;2022-10-04T16:00:52;7.83;;;2.50;;
16593;SDS011;8410;52.532;13.336;2022-10-04T16:03:33;8.63;;;2.43;;
16593;SDS011;8410;52.532;13.336;2022-10-04T16:06:16;4.17;;;1.90;;
16593;SDS011;8410;52.532;13.336;2022-10-04T16:08:51;7.13;;;2.03;;
16593;SDS011;8410;52.532;13.336;2022-10-04T16:11:43;9.53;;;2.27;;
16593;SDS011;8410;52.532;13.336;2022-10-04T16:14:21;6.93;;;2.10;;
16593;SDS011;8410;52.532;13.336;2022-10-04T16:17:04;3.73;;;1.90;;
16593;SDS011;8410;52.532;13.336;2022-10-04T16:19:45;6.07;;;1.93;;
16593;SDS011;8410;52.532;13.336;2022-10-04T16:22:27;5.83;;;2.17;;
16593;SDS011;8410;52.532;13.336;2022-10-04T16:24:56;8.50;;;2.37;;
16593;SDS011;8410;52.532;13.336;2022-10-04T16:27:32;6.73;;;3.03;;
16593;SDS011;8410;52.532;13.336;2022-10-04T16:30:16;12.60;;;2.90;;
16593;SDS011;8410;52.532;13.336;2022-10-04T16:36:00;6.30;;;2.43;;
16593;SDS011;8410;52.532;13.336;2022-10-04T16:38:35;6.37;;;2.40;;
16593;SDS011;8410;52.532;13.336;2022-10-04T16:41:36;5.03;;;2.23;;
16593;SDS011;8410;52.532;13.336;2022-10-04T16:44:11;5.03;;;2.20;;
16593;SDS011;8410;52.532;13.336;2022-10-04T16:46:57;5.77;;;1.97;;
16593;SDS011;8410;52.532;13.336;2022-10-04T16:49:30;5.37;;;2.23;;
16593;SDS011;8410;52.532;13.336;2022-10-04T16:52:15;7.57;;;2.07;;
16593;SDS011;8410;52.532;13.336;2022-10-04T16:54:57;6.97;;;2.50;;
16593;SDS011;8410;52.532;13.336;2022-10-04T16:57:29;6.13;;;4.30;;
16593;SDS011;8410;52.532;13.336;2022-10-04T16:59:58;6.03;;;2.53;;
16593;SDS011;8410;52.532;13.336;2022-10-04T17:02:48;5.93;;;2.90;;
16593;SDS011;8410;52.532;13.336;2022-10-04T17:05:36;8.87;;;3.07;;
16593;SDS011;8410;52.532;13.336;2022-10-04T17:08:39;3.80;;;2.37;;
16593;SDS011;8410;52.532;13.336;2022-10-04T17:11:16;5.43;;;2.63;;